Donnie Sonier — WDF9285 — position and weather

sailwx.info

Track history (hours):
 
Tides and Currents Weather Stations Pressure Air Temp Water Temp Dewpoint Dewpoint Depression Visibility Wind Speed Wind Dir Waves Ship Positions

Donnie Sonier

Owner: LeBeouf Bros. Towing, LLC, Houma, LA. More information available from US FCC via Universal Licensing System and Coast Guard Vessel Documentation Center.

Last reported at 2017-Jan-28 20:33 UTC. Time now 2017-Apr-24 11:28 UTC.
Position N 29°35' W 090°36'.
Warning: this ship's position is months out of date.

Length 22 m; draft 3 m.

Type: Tug. MMSI: 367503580.

Date/timePositionNaut miles runAvg speedWind from/ knotsBaromVisibWave heightAir tempDewpointWater temp
2017-Jan-28 20:33N 29°35' W 090°36'4 4.5
2017-Jan-28 19:34N 29°36' W 090°41'3 3.0
2017-Jan-28 18:34N 29°34' W 090°43'5 4.9
2017-Jan-28 17:33N 29°32' W 090°48'63 3.9
2017-Jan-28 01:21N 29°50' W 091°58'4 5.1
2017-Jan-28 00:33N 29°49' W 092°02'5 5.5
2017-Jan-27 23:33N 29°47' W 092°08'4 4.1
2017-Jan-27 22:33N 29°47' W 092°13'4 3.6
2017-Jan-27 21:33N 29°49' W 092°17'5 5.0
2017-Jan-27 20:34N 29°51' W 092°22'37 2.6
2017-Jan-27 06:33N 29°56' W 093°04'4 3.7
2017-Jan-27 05:34N 29°56' W 093°08'3 3.4
2017-Jan-27 04:33N 29°58' W 093°11'4 4.0
2017-Jan-27 03:33N 30°01' W 093°14'2 2.4
2017-Jan-27 02:34N 30°03' W 093°16'3 2.9
2017-Jan-27 01:33N 30°05' W 093°18'1 1.0
2017-Jan-27 00:33N 30°06' W 093°18'2 1.6
2017-Jan-26 23:34N 30°05' W 093°20'3 2.5
2017-Jan-26 22:33N 30°04' W 093°22'4 4.2
2017-Jan-26 21:33N 30°04' W 093°27'5 4.8
2017-Jan-26 20:33N 30°04' W 093°33'5 5.2
2017-Jan-26 19:30N 30°04' W 093°39'73 3.9
2017-Jan-26 00:33N 29°36' W 094°57'7 6.8
2017-Jan-25 23:33N 29°42' W 095°00'5 4.9
2017-Jan-25 22:33N 29°45' W 095°04'4 0.2
2017-Jan-25 01:28N 29°42' W 095°02'1 0.8
2017-Jan-25 00:19N 29°42' W 095°03'0 0.0
2017-Jan-24 23:33N 29°42' W 095°03'0 0.2
2017-Jan-24 22:33N 29°42' W 095°03'7 4.9
2017-Jan-24 21:13N 29°38' W 094°58'6 8.4
2017-Jan-24 20:33N 29°33' W 094°54'15 2.4
2017-Jan-24 14:20N 29°19' W 094°49'14 0.7
2017-Jan-23 17:33N 29°32' W 094°54'4 4.5
2017-Jan-23 16:33N 29°35' W 094°56'5 4.6
2017-Jan-23 15:33N 29°40' W 094°58'5 5.5
2017-Jan-23 14:33N 29°44' W 095°02'4 3.2
2017-Jan-23 13:27N 29°47' W 095°05'3 0.4
2017-Jan-23 05:25N 29°44' W 095°03'2 2.1
2017-Jan-23 04:33N 29°42' W 095°02'1 0.9
2017-Jan-23 03:33N 29°42' W 095°03'0 0.0
2017-Jan-23 02:23N 29°42' W 095°03'0 0.0
2017-Jan-23 00:31N 29°42' W 095°03'0 0.1
2017-Jan-22 23:33N 29°43' W 095°03'1 1.4
2017-Jan-22 22:33N 29°42' W 095°01'2 0.7
2017-Jan-22 19:30N 29°44' W 095°03'0 0.0
2017-Jan-22 18:32N 29°44' W 095°03'0 0.0
2017-Jan-22 17:32N 29°44' W 095°03'0 0.0
2017-Jan-22 16:33N 29°44' W 095°03'0 0.0
2017-Jan-22 15:22N 29°44' W 095°03'0 0.0
2017-Jan-22 03:33N 29°44' W 095°03'0 0.0
2017-Jan-21 23:33N 29°44' W 095°03'0 0.0
2017-Jan-21 22:33N 29°44' W 095°03'3 2.8
2017-Jan-21 21:29N 29°47' W 095°05'0 0.1
2017-Jan-21 20:31N 29°47' W 095°05'0 0.0
2017-Jan-21 19:30N 29°47' W 095°05'0 0.0
2017-Jan-21 18:30N 29°47' W 095°05'0 0.0
2017-Jan-21 17:28N 29°47' W 095°05'0 0.0
2017-Jan-21 16:32N 29°47' W 095°05'0 0.0
2017-Jan-21 15:31N 29°47' W 095°05'0 0.0
2017-Jan-21 14:33N 29°47' W 095°05'0 0.0
2017-Jan-19 18:08N 29°47' W 095°05'0 0.0
2017-Jan-19 17:27N 29°47' W 095°05'2 0.1
2017-Jan-18 23:13N 29°45' W 095°06'0 0.0
2017-Jan-18 22:24N 29°45' W 095°06'0 0.0
2017-Jan-18 21:33N 29°45' W 095°06'  
Track history (hours):
 
Tides and Currents Weather Stations Pressure Air Temp Water Temp Dewpoint Dewpoint Depression Visibility Wind Speed Wind Dir Waves Ship Positions

Donnie Sonier

Owner: LeBeouf Bros. Towing, LLC, Houma, LA. More information available from US FCC via Universal Licensing System and Coast Guard Vessel Documentation Center.

Last reported at 2017-Jan-28 20:33 UTC. Time now 2017-Apr-24 11:28 UTC.
Position N 29°35' W 090°36'.
Warning: this ship's position is months out of date.

Length 22 m; draft 3 m.

Type: Tug. MMSI: 367503580.

Date/timePositionNaut miles runAvg speedWind from/ knotsBaromVisibWave heightAir tempDewpointWater temp
2017-Jan-28 20:33N 29°35' W 090°36'4 4.5
2017-Jan-28 19:34N 29°36' W 090°41'3 3.0
2017-Jan-28 18:34N 29°34' W 090°43'5 4.9
2017-Jan-28 17:33N 29°32' W 090°48'63 3.9
2017-Jan-28 01:21N 29°50' W 091°58'4 5.1
2017-Jan-28 00:33N 29°49' W 092°02'5 5.5
2017-Jan-27 23:33N 29°47' W 092°08'4 4.1
2017-Jan-27 22:33N 29°47' W 092°13'4 3.6
2017-Jan-27 21:33N 29°49' W 092°17'5 5.0
2017-Jan-27 20:34N 29°51' W 092°22'37 2.6
2017-Jan-27 06:33N 29°56' W 093°04'4 3.7
2017-Jan-27 05:34N 29°56' W 093°08'3 3.4
2017-Jan-27 04:33N 29°58' W 093°11'4 4.0
2017-Jan-27 03:33N 30°01' W 093°14'2 2.4
2017-Jan-27 02:34N 30°03' W 093°16'3 2.9
2017-Jan-27 01:33N 30°05' W 093°18'1 1.0
2017-Jan-27 00:33N 30°06' W 093°18'2 1.6
2017-Jan-26 23:34N 30°05' W 093°20'3 2.5
2017-Jan-26 22:33N 30°04' W 093°22'4 4.2
2017-Jan-26 21:33N 30°04' W 093°27'5 4.8
2017-Jan-26 20:33N 30°04' W 093°33'5 5.2
2017-Jan-26 19:30N 30°04' W 093°39'73 3.9
2017-Jan-26 00:33N 29°36' W 094°57'7 6.8
2017-Jan-25 23:33N 29°42' W 095°00'5 4.9
2017-Jan-25 22:33N 29°45' W 095°04'4 0.2
2017-Jan-25 01:28N 29°42' W 095°02'1 0.8
2017-Jan-25 00:19N 29°42' W 095°03'0 0.0
2017-Jan-24 23:33N 29°42' W 095°03'0 0.2
2017-Jan-24 22:33N 29°42' W 095°03'7 4.9
2017-Jan-24 21:13N 29°38' W 094°58'6 8.4
2017-Jan-24 20:33N 29°33' W 094°54'15 2.4
2017-Jan-24 14:20N 29°19' W 094°49'14 0.7
2017-Jan-23 17:33N 29°32' W 094°54'4 4.5
2017-Jan-23 16:33N 29°35' W 094°56'5 4.6
2017-Jan-23 15:33N 29°40' W 094°58'5 5.5
2017-Jan-23 14:33N 29°44' W 095°02'4 3.2
2017-Jan-23 13:27N 29°47' W 095°05'3 0.4
2017-Jan-23 05:25N 29°44' W 095°03'2 2.1
2017-Jan-23 04:33N 29°42' W 095°02'1 0.9
2017-Jan-23 03:33N 29°42' W 095°03'0 0.0
2017-Jan-23 02:23N 29°42' W 095°03'0 0.0
2017-Jan-23 00:31N 29°42' W 095°03'0 0.1
2017-Jan-22 23:33N 29°43' W 095°03'1 1.4
2017-Jan-22 22:33N 29°42' W 095°01'2 0.7
2017-Jan-22 19:30N 29°44' W 095°03'0 0.0
2017-Jan-22 18:32N 29°44' W 095°03'0 0.0
2017-Jan-22 17:32N 29°44' W 095°03'0 0.0
2017-Jan-22 16:33N 29°44' W 095°03'0 0.0
2017-Jan-22 15:22N 29°44' W 095°03'0 0.0
2017-Jan-22 03:33N 29°44' W 095°03'0 0.0
2017-Jan-21 23:33N 29°44' W 095°03'0 0.0
2017-Jan-21 22:33N 29°44' W 095°03'3 2.8
2017-Jan-21 21:29N 29°47' W 095°05'0 0.1
2017-Jan-21 20:31N 29°47' W 095°05'0 0.0
2017-Jan-21 19:30N 29°47' W 095°05'0 0.0
2017-Jan-21 18:30N 29°47' W 095°05'0 0.0
2017-Jan-21 17:28N 29°47' W 095°05'0 0.0
2017-Jan-21 16:32N 29°47' W 095°05'0 0.0
2017-Jan-21 15:31N 29°47' W 095°05'0 0.0
2017-Jan-21 14:33N 29°47' W 095°05'0 0.0
2017-Jan-19 18:08N 29°47' W 095°05'0 0.0
2017-Jan-19 17:27N 29°47' W 095°05'2 0.1
2017-Jan-18 23:13N 29°45' W 095°06'0 0.0
2017-Jan-18 22:24N 29°45' W 095°06'0 0.0
2017-Jan-18 21:33N 29°45' W 095°06'  

Dump ship's entire track history